sensor_id;sensor_type;location;lat;lon;timestamp;P1;durP1;ratioP1;P2;durP2;ratioP2
50225;SDS011;36113;50.742;6.432;2023-04-25T00:01:21;13.68;;;5.60;;
50225;SDS011;36113;50.742;6.432;2023-04-25T00:03:47;9.80;;;5.68;;
50225;SDS011;36113;50.742;6.432;2023-04-25T00:06:12;9.50;;;5.95;;
50225;SDS011;36113;50.742;6.432;2023-04-25T00:08:38;7.30;;;5.47;;
50225;SDS011;36113;50.742;6.432;2023-04-25T00:11:04;11.90;;;5.28;;
50225;SDS011;36113;50.742;6.432;2023-04-25T00:13:30;7.88;;;5.68;;
50225;SDS011;36113;50.742;6.432;2023-04-25T00:15:55;14.10;;;6.38;;
50225;SDS011;36113;50.742;6.432;2023-04-25T00:18:21;9.15;;;6.07;;
50225;SDS011;36113;50.742;6.432;2023-04-25T00:20:47;9.43;;;6.20;;
50225;SDS011;36113;50.742;6.432;2023-04-25T00:23:13;13.15;;;5.95;;
50225;SDS011;36113;50.742;6.432;2023-04-25T00:25:49;12.05;;;5.40;;
50225;SDS011;36113;50.742;6.432;2023-04-25T00:28:15;12.70;;;5.87;;
50225;SDS011;36113;50.742;6.432;2023-04-25T00:30:42;9.90;;;6.38;;
50225;SDS011;36113;50.742;6.432;2023-04-25T00:33:08;9.98;;;5.63;;
50225;SDS011;36113;50.742;6.432;2023-04-25T00:35:35;13.52;;;6.22;;
50225;SDS011;36113;50.742;6.432;2023-04-25T00:38:00;11.68;;;5.43;;
50225;SDS011;36113;50.742;6.432;2023-04-25T00:40:26;13.93;;;6.10;;
50225;SDS011;36113;50.742;6.432;2023-04-25T00:42:52;9.45;;;5.22;;
50225;SDS011;36113;50.742;6.432;2023-04-25T00:45:18;10.55;;;5.72;;
50225;SDS011;36113;50.742;6.432;2023-04-25T00:47:44;10.40;;;5.43;;
50225;SDS011;36113;50.742;6.432;2023-04-25T00:50:10;10.93;;;6.55;;
50225;SDS011;36113;50.742;6.432;2023-04-25T00:52:40;10.25;;;5.47;;
50225;SDS011;36113;50.742;6.432;2023-04-25T00:55:07;8.13;;;5.70;;
50225;SDS011;36113;50.742;6.432;2023-04-25T00:57:33;10.25;;;6.32;;
50225;SDS011;36113;50.742;6.432;2023-04-25T00:59:59;11.83;;;6.13;;
50225;SDS011;36113;50.742;6.432;2023-04-25T01:02:25;9.18;;;5.35;;
50225;SDS011;36113;50.742;6.432;2023-04-25T01:04:51;9.57;;;5.77;;
50225;SDS011;36113;50.742;6.432;2023-04-25T01:07:17;11.40;;;5.63;;
50225;SDS011;36113;50.742;6.432;2023-04-25T01:09:43;15.15;;;5.32;;
50225;SDS011;36113;50.742;6.432;2023-04-25T01:12:08;9.65;;;5.40;;
50225;SDS011;36113;50.742;6.432;2023-04-25T01:14:33;9.38;;;5.35;;
50225;SDS011;36113;50.742;6.432;2023-04-25T01:16:59;13.65;;;5.60;;
50225;SDS011;36113;50.742;6.432;2023-04-25T01:19:24;11.68;;;5.35;;
50225;SDS011;36113;50.742;6.432;2023-04-25T01:21:50;13.13;;;6.23;;
50225;SDS011;36113;50.742;6.432;2023-04-25T01:24:16;9.65;;;5.82;;
50225;SDS011;36113;50.742;6.432;2023-04-25T01:26:42;9.20;;;4.70;;
50225;SDS011;36113;50.742;6.432;2023-04-25T01:29:14;12.30;;;6.10;;
50225;SDS011;36113;50.742;6.432;2023-04-25T01:31:40;10.50;;;5.22;;
50225;SDS011;36113;50.742;6.432;2023-04-25T01:34:06;11.00;;;5.50;;
50225;SDS011;36113;50.742;6.432;2023-04-25T01:36:31;11.95;;;6.07;;
50225;SDS011;36113;50.742;6.432;2023-04-25T01:38:57;12.05;;;5.65;;
50225;SDS011;36113;50.742;6.432;2023-04-25T01:41:22;8.82;;;5.43;;
50225;SDS011;36113;50.742;6.432;2023-04-25T01:43:48;15.75;;;6.03;;
50225;SDS011;36113;50.742;6.432;2023-04-25T01:46:13;14.65;;;6.82;;
50225;SDS011;36113;50.742;6.432;2023-04-25T01:48:38;10.70;;;5.68;;
50225;SDS011;36113;50.742;6.432;2023-04-25T01:51:04;15.75;;;6.40;;
50225;SDS011;36113;50.742;6.432;2023-04-25T01:53:29;15.73;;;6.63;;
50225;SDS011;36113;50.742;6.432;2023-04-25T01:55:55;15.13;;;6.43;;
50225;SDS011;36113;50.742;6.432;2023-04-25T01:58:20;15.85;;;5.82;;
50225;SDS011;36113;50.742;6.432;2023-04-25T02:00:46;15.77;;;6.05;;
50225;SDS011;36113;50.742;6.432;2023-04-25T02:03:11;13.38;;;5.95;;
50225;SDS011;36113;50.742;6.432;2023-04-25T02:05:37;12.82;;;6.13;;
50225;SDS011;36113;50.742;6.432;2023-04-25T02:08:06;15.60;;;6.78;;
50225;SDS011;36113;50.742;6.432;2023-04-25T02:10:33;16.08;;;6.82;;
50225;SDS011;36113;50.742;6.432;2023-04-25T02:12:59;15.27;;;5.67;;
50225;SDS011;36113;50.742;6.432;2023-04-25T02:15:25;10.55;;;5.75;;
50225;SDS011;36113;50.742;6.432;2023-04-25T02:17:50;17.80;;;7.13;;
50225;SDS011;36113;50.742;6.432;2023-04-25T02:20:17;16.98;;;7.03;;
50225;SDS011;36113;50.742;6.432;2023-04-25T02:22:45;16.33;;;6.60;;
50225;SDS011;36113;50.742;6.432;2023-04-25T02:25:10;11.77;;;6.00;;
50225;SDS011;36113;50.742;6.432;2023-04-25T02:27:36;16.83;;;6.25;;
50225;SDS011;36113;50.742;6.432;2023-04-25T02:30:02;16.67;;;6.38;;
50225;SDS011;36113;50.742;6.432;2023-04-25T02:32:28;11.95;;;5.38;;
50225;SDS011;36113;50.742;6.432;2023-04-25T02:34:53;9.48;;;5.30;;
50225;SDS011;36113;50.742;6.432;2023-04-25T02:37:19;14.43;;;6.63;;
50225;SDS011;36113;50.742;6.432;2023-04-25T02:39:44;9.32;;;5.88;;
50225;SDS011;36113;50.742;6.432;2023-04-25T02:42:09;12.70;;;6.15;;
50225;SDS011;36113;50.742;6.432;2023-04-25T02:44:35;19.48;;;5.75;;
50225;SDS011;36113;50.742;6.432;2023-04-25T02:47:00;9.32;;;5.50;;
50225;SDS011;36113;50.742;6.432;2023-04-25T02:49:25;12.93;;;6.25;;
50225;SDS011;36113;50.742;6.432;2023-04-25T02:51:50;15.77;;;6.53;;
50225;SDS011;36113;50.742;6.432;2023-04-25T02:54:16;11.57;;;5.70;;
50225;SDS011;36113;50.742;6.432;2023-04-25T02:56:41;18.02;;;5.63;;
50225;SDS011;36113;50.742;6.432;2023-04-25T02:59:06;20.60;;;6.63;;
50225;SDS011;36113;50.742;6.432;2023-04-25T03:01:32;9.15;;;5.00;;
50225;SDS011;36113;50.742;6.432;2023-04-25T03:03:57;12.82;;;5.72;;
50225;SDS011;36113;50.742;6.432;2023-04-25T03:06:22;18.25;;;5.93;;
50225;SDS011;36113;50.742;6.432;2023-04-25T03:08:48;13.05;;;5.35;;
50225;SDS011;36113;50.742;6.432;2023-04-25T03:11:13;13.93;;;5.63;;
50225;SDS011;36113;50.742;6.432;2023-04-25T03:13:38;15.63;;;6.18;;
50225;SDS011;36113;50.742;6.432;2023-04-25T03:16:04;15.93;;;6.05;;
50225;SDS011;36113;50.742;6.432;2023-04-25T03:18:29;13.57;;;5.60;;
50225;SDS011;36113;50.742;6.432;2023-04-25T03:20:55;13.73;;;5.95;;
50225;SDS011;36113;50.742;6.432;2023-04-25T03:23:20;17.52;;;6.28;;
50225;SDS011;36113;50.742;6.432;2023-04-25T03:25:46;14.10;;;5.32;;
50225;SDS011;36113;50.742;6.432;2023-04-25T03:28:11;14.50;;;5.53;;
50225;SDS011;36113;50.742;6.432;2023-04-25T03:30:36;19.85;;;6.28;;
50225;SDS011;36113;50.742;6.432;2023-04-25T03:33:02;10.85;;;5.47;;
50225;SDS011;36113;50.742;6.432;2023-04-25T03:35:27;14.98;;;5.53;;
50225;SDS011;36113;50.742;6.432;2023-04-25T03:37:52;18.50;;;5.75;;
50225;SDS011;36113;50.742;6.432;2023-04-25T03:40:18;11.65;;;5.03;;
50225;SDS011;36113;50.742;6.432;2023-04-25T03:42:43;19.88;;;6.53;;
50225;SDS011;36113;50.742;6.432;2023-04-25T03:45:08;13.25;;;5.40;;
50225;SDS011;36113;50.742;6.432;2023-04-25T03:47:34;11.82;;;5.85;;
50225;SDS011;36113;50.742;6.432;2023-04-25T03:49:59;12.85;;;6.03;;
50225;SDS011;36113;50.742;6.432;2023-04-25T03:52:26;14.93;;;6.15;;
50225;SDS011;36113;50.742;6.432;2023-04-25T03:54:52;12.85;;;5.22;;
50225;SDS011;36113;50.742;6.432;2023-04-25T03:57:17;16.13;;;5.68;;
50225;SDS011;36113;50.742;6.432;2023-04-25T03:59:42;18.63;;;5.50;;
50225;SDS011;36113;50.742;6.432;2023-04-25T04:02:09;10.20;;;4.70;;
50225;SDS011;36113;50.742;6.432;2023-04-25T04:04:34;10.48;;;5.07;;
50225;SDS011;36113;50.742;6.432;2023-04-25T04:07:00;10.15;;;4.65;;
50225;SDS011;36113;50.742;6.432;2023-04-25T04:09:25;11.93;;;4.90;;
50225;SDS011;36113;50.742;6.432;2023-04-25T04:11:52;14.50;;;5.07;;
50225;SDS011;36113;50.742;6.432;2023-04-25T04:14:17;13.48;;;6.05;;
50225;SDS011;36113;50.742;6.432;2023-04-25T04:16:43;12.27;;;5.70;;
50225;SDS011;36113;50.742;6.432;2023-04-25T04:19:08;13.52;;;5.30;;
50225;SDS011;36113;50.742;6.432;2023-04-25T04:21:33;9.85;;;4.97;;
50225;SDS011;36113;50.742;6.432;2023-04-25T04:23:58;9.73;;;5.25;;
50225;SDS011;36113;50.742;6.432;2023-04-25T04:26:25;16.75;;;4.80;;
50225;SDS011;36113;50.742;6.432;2023-04-25T04:28:51;12.10;;;4.63;;
50225;SDS011;36113;50.742;6.432;2023-04-25T04:31:16;13.77;;;5.30;;
50225;SDS011;36113;50.742;6.432;2023-04-25T04:33:44;13.15;;;5.00;;
50225;SDS011;36113;50.742;6.432;2023-04-25T04:36:10;15.37;;;5.63;;
50225;SDS011;36113;50.742;6.432;2023-04-25T04:38:36;10.40;;;5.15;;
50225;SDS011;36113;50.742;6.432;2023-04-25T04:41:02;14.57;;;5.07;;
50225;SDS011;36113;50.742;6.432;2023-04-25T04:43:28;12.77;;;4.90;;
50225;SDS011;36113;50.742;6.432;2023-04-25T04:45:54;13.83;;;5.40;;
50225;SDS011;36113;50.742;6.432;2023-04-25T04:48:21;14.13;;;5.57;;
50225;SDS011;36113;50.742;6.432;2023-04-25T04:50:46;16.95;;;5.22;;
50225;SDS011;36113;50.742;6.432;2023-04-25T04:53:12;14.30;;;5.20;;
50225;SDS011;36113;50.742;6.432;2023-04-25T04:55:37;13.35;;;4.70;;
50225;SDS011;36113;50.742;6.432;2023-04-25T04:58:03;8.57;;;5.38;;
50225;SDS011;36113;50.742;6.432;2023-04-25T05:00:28;14.60;;;4.85;;
50225;SDS011;36113;50.742;6.432;2023-04-25T05:02:54;9.20;;;5.30;;
50225;SDS011;36113;50.742;6.432;2023-04-25T05:05:20;9.57;;;4.83;;
50225;SDS011;36113;50.742;6.432;2023-04-25T05:07:45;8.50;;;4.55;;
50225;SDS011;36113;50.742;6.432;2023-04-25T05:10:11;15.68;;;5.57;;
50225;SDS011;36113;50.742;6.432;2023-04-25T05:12:36;18.40;;;5.30;;
50225;SDS011;36113;50.742;6.432;2023-04-25T05:15:01;14.77;;;5.32;;
50225;SDS011;36113;50.742;6.432;2023-04-25T05:17:27;20.83;;;5.80;;
50225;SDS011;36113;50.742;6.432;2023-04-25T05:19:52;15.73;;;5.18;;
50225;SDS011;36113;50.742;6.432;2023-04-25T05:22:17;21.17;;;6.05;;
50225;SDS011;36113;50.742;6.432;2023-04-25T05:24:43;14.38;;;5.03;;
50225;SDS011;36113;50.742;6.432;2023-04-25T05:27:08;12.13;;;4.40;;
50225;SDS011;36113;50.742;6.432;2023-04-25T05:29:33;20.73;;;5.25;;
50225;SDS011;36113;50.742;6.432;2023-04-25T05:32:00;15.13;;;6.27;;
50225;SDS011;36113;50.742;6.432;2023-04-25T05:34:25;16.02;;;3.80;;
50225;SDS011;36113;50.742;6.432;2023-04-25T05:36:51;19.00;;;4.75;;
50225;SDS011;36113;50.742;6.432;2023-04-25T05:39:16;24.80;;;5.85;;
50225;SDS011;36113;50.742;6.432;2023-04-25T05:41:42;15.60;;;4.40;;
50225;SDS011;36113;50.742;6.432;2023-04-25T05:44:07;14.75;;;4.85;;
50225;SDS011;36113;50.742;6.432;2023-04-25T05:46:33;20.85;;;6.28;;
50225;SDS011;36113;50.742;6.432;2023-04-25T05:48:58;15.52;;;4.97;;
50225;SDS011;36113;50.742;6.432;2023-04-25T05:51:23;14.75;;;5.00;;
50225;SDS011;36113;50.742;6.432;2023-04-25T05:53:49;19.77;;;5.28;;
50225;SDS011;36113;50.742;6.432;2023-04-25T05:56:14;21.98;;;5.50;;
50225;SDS011;36113;50.742;6.432;2023-04-25T05:58:39;12.57;;;4.53;;
50225;SDS011;36113;50.742;6.432;2023-04-25T06:01:05;18.75;;;5.53;;
50225;SDS011;36113;50.742;6.432;2023-04-25T06:03:30;17.77;;;5.28;;
50225;SDS011;36113;50.742;6.432;2023-04-25T06:05:56;19.67;;;4.75;;
50225;SDS011;36113;50.742;6.432;2023-04-25T06:08:21;18.40;;;5.38;;
50225;SDS011;36113;50.742;6.432;2023-04-25T06:10:46;17.48;;;5.18;;
50225;SDS011;36113;50.742;6.432;2023-04-25T06:13:11;12.63;;;4.72;;
50225;SDS011;36113;50.742;6.432;2023-04-25T06:15:37;16.02;;;4.90;;
50225;SDS011;36113;50.742;6.432;2023-04-25T06:18:02;8.90;;;5.47;;
50225;SDS011;36113;50.742;6.432;2023-04-25T06:20:28;19.40;;;5.47;;
50225;SDS011;36113;50.742;6.432;2023-04-25T06:22:53;19.17;;;5.72;;
50225;SDS011;36113;50.742;6.432;2023-04-25T06:25:18;21.27;;;5.28;;
50225;SDS011;36113;50.742;6.432;2023-04-25T06:27:44;15.05;;;6.25;;
50225;SDS011;36113;50.742;6.432;2023-04-25T06:30:10;14.85;;;5.63;;
50225;SDS011;36113;50.742;6.432;2023-04-25T06:32:37;15.63;;;5.88;;
50225;SDS011;36113;50.742;6.432;2023-04-25T06:35:02;19.33;;;5.88;;
50225;SDS011;36113;50.742;6.432;2023-04-25T06:37:28;23.37;;;6.13;;
50225;SDS011;36113;50.742;6.432;2023-04-25T06:39:54;17.00;;;6.30;;
50225;SDS011;36113;50.742;6.432;2023-04-25T06:42:19;14.10;;;5.63;;
50225;SDS011;36113;50.742;6.432;2023-04-25T06:44:44;16.25;;;5.25;;
50225;SDS011;36113;50.742;6.432;2023-04-25T06:47:10;17.70;;;5.80;;
50225;SDS011;36113;50.742;6.432;2023-04-25T06:49:35;18.77;;;4.93;;
50225;SDS011;36113;50.742;6.432;2023-04-25T06:52:00;11.95;;;4.80;;
50225;SDS011;36113;50.742;6.432;2023-04-25T06:54:26;22.15;;;5.82;;
50225;SDS011;36113;50.742;6.432;2023-04-25T06:56:53;18.42;;;5.03;;
50225;SDS011;36113;50.742;6.432;2023-04-25T06:59:19;15.15;;;5.03;;
50225;SDS011;36113;50.742;6.432;2023-04-25T07:01:44;14.18;;;4.88;;
50225;SDS011;36113;50.742;6.432;2023-04-25T07:04:10;13.38;;;5.05;;
50225;SDS011;36113;50.742;6.432;2023-04-25T07:06:35;12.82;;;4.20;;
50225;SDS011;36113;50.742;6.432;2023-04-25T07:09:03;22.10;;;6.03;;
50225;SDS011;36113;50.742;6.432;2023-04-25T07:11:29;8.52;;;4.32;;
50225;SDS011;36113;50.742;6.432;2023-04-25T07:13:54;18.23;;;4.38;;
50225;SDS011;36113;50.742;6.432;2023-04-25T07:16:20;11.80;;;4.95;;
50225;SDS011;36113;50.742;6.432;2023-04-25T07:18:45;12.30;;;4.15;;
50225;SDS011;36113;50.742;6.432;2023-04-25T07:21:10;14.32;;;4.15;;
50225;SDS011;36113;50.742;6.432;2023-04-25T07:23:36;10.68;;;3.45;;
50225;SDS011;36113;50.742;6.432;2023-04-25T07:26:02;14.40;;;4.77;;
50225;SDS011;36113;50.742;6.432;2023-04-25T07:28:27;15.63;;;6.18;;
50225;SDS011;36113;50.742;6.432;2023-04-25T07:30:53;13.73;;;4.72;;
50225;SDS011;36113;50.742;6.432;2023-04-25T07:33:18;11.68;;;5.22;;
50225;SDS011;36113;50.742;6.432;2023-04-25T07:35:45;7.53;;;4.40;;
50225;SDS011;36113;50.742;6.432;2023-04-25T07:38:10;9.02;;;3.83;;
50225;SDS011;36113;50.742;6.432;2023-04-25T07:40:36;12.57;;;3.72;;
50225;SDS011;36113;50.742;6.432;2023-04-25T07:43:01;13.18;;;4.57;;
50225;SDS011;36113;50.742;6.432;2023-04-25T07:45:27;12.20;;;3.70;;
50225;SDS011;36113;50.742;6.432;2023-04-25T07:47:52;15.35;;;3.85;;
50225;SDS011;36113;50.742;6.432;2023-04-25T07:50:17;13.43;;;3.65;;
50225;SDS011;36113;50.742;6.432;2023-04-25T07:52:43;8.30;;;3.17;;
50225;SDS011;36113;50.742;6.432;2023-04-25T07:55:08;15.02;;;4.57;;
50225;SDS011;36113;50.742;6.432;2023-04-25T07:57:34;8.68;;;3.28;;
50225;SDS011;36113;50.742;6.432;2023-04-25T07:59:59;14.80;;;3.70;;
50225;SDS011;36113;50.742;6.432;2023-04-25T08:02:24;13.15;;;4.03;;
50225;SDS011;36113;50.742;6.432;2023-04-25T08:04:53;13.98;;;3.78;;
50225;SDS011;36113;50.742;6.432;2023-04-25T08:07:18;13.05;;;3.60;;
50225;SDS011;36113;50.742;6.432;2023-04-25T08:09:43;9.48;;;2.70;;
50225;SDS011;36113;50.742;6.432;2023-04-25T08:12:09;12.80;;;3.63;;
50225;SDS011;36113;50.742;6.432;2023-04-25T08:14:34;6.10;;;3.08;;
50225;SDS011;36113;50.742;6.432;2023-04-25T08:17:04;10.43;;;3.58;;
50225;SDS011;36113;50.742;6.432;2023-04-25T08:19:30;8.27;;;3.50;;
50225;SDS011;36113;50.742;6.432;2023-04-25T08:21:56;10.38;;;3.35;;
50225;SDS011;36113;50.742;6.432;2023-04-25T08:24:22;17.30;;;3.38;;
50225;SDS011;36113;50.742;6.432;2023-04-25T08:26:48;7.65;;;3.70;;
50225;SDS011;36113;50.742;6.432;2023-04-25T08:29:13;9.98;;;3.95;;
50225;SDS011;36113;50.742;6.432;2023-04-25T08:31:38;16.40;;;3.83;;
50225;SDS011;36113;50.742;6.432;2023-04-25T08:34:04;9.13;;;3.63;;
50225;SDS011;36113;50.742;6.432;2023-04-25T08:36:29;15.25;;;3.83;;
50225;SDS011;36113;50.742;6.432;2023-04-25T08:38:54;10.70;;;4.03;;
50225;SDS011;36113;50.742;6.432;2023-04-25T08:41:20;8.20;;;3.53;;
50225;SDS011;36113;50.742;6.432;2023-04-25T08:43:47;6.85;;;3.03;;
50225;SDS011;36113;50.742;6.432;2023-04-25T08:46:13;5.95;;;3.17;;
50225;SDS011;36113;50.742;6.432;2023-04-25T08:48:43;10.40;;;2.58;;
50225;SDS011;36113;50.742;6.432;2023-04-25T08:51:10;8.23;;;3.22;;
50225;SDS011;36113;50.742;6.432;2023-04-25T08:53:40;11.15;;;3.28;;
50225;SDS011;36113;50.742;6.432;2023-04-25T08:58:34;4.00;;;1.95;;
50225;SDS011;36113;50.742;6.432;2023-04-25T09:01:00;5.50;;;2.30;;
50225;SDS011;36113;50.742;6.432;2023-04-25T09:03:25;6.95;;;2.90;;
50225;SDS011;36113;50.742;6.432;2023-04-25T09:05:51;10.45;;;2.35;;
50225;SDS011;36113;50.742;6.432;2023-04-25T09:08:17;7.43;;;2.40;;
50225;SDS011;36113;50.742;6.432;2023-04-25T09:10:42;8.95;;;2.30;;
50225;SDS011;36113;50.742;6.432;2023-04-25T09:15:48;6.82;;;2.45;;
50225;SDS011;36113;50.742;6.432;2023-04-25T09:18:21;8.98;;;2.30;;
50225;SDS011;36113;50.742;6.432;2023-04-25T09:20:58;9.55;;;3.05;;
50225;SDS011;36113;50.742;6.432;2023-04-25T09:23:31;5.10;;;2.20;;
50225;SDS011;36113;50.742;6.432;2023-04-25T09:26:06;10.82;;;2.45;;
50225;SDS011;36113;50.742;6.432;2023-04-25T09:28:32;9.15;;;3.10;;
50225;SDS011;36113;50.742;6.432;2023-04-25T09:30:57;6.80;;;2.15;;
50225;SDS011;36113;50.742;6.432;2023-04-25T09:33:29;10.43;;;2.58;;
50225;SDS011;36113;50.742;6.432;2023-04-25T09:36:01;6.05;;;2.35;;
50225;SDS011;36113;50.742;6.432;2023-04-25T09:38:41;7.25;;;2.20;;
50225;SDS011;36113;50.742;6.432;2023-04-25T09:41:09;4.10;;;2.45;;
50225;SDS011;36113;50.742;6.432;2023-04-25T09:43:35;12.55;;;2.97;;
50225;SDS011;36113;50.742;6.432;2023-04-25T09:46:01;9.57;;;3.50;;
50225;SDS011;36113;50.742;6.432;2023-04-25T09:48:27;7.03;;;2.55;;
50225;SDS011;36113;50.742;6.432;2023-04-25T09:51:11;9.55;;;2.78;;
50225;SDS011;36113;50.742;6.432;2023-04-25T09:53:42;6.35;;;2.22;;
50225;SDS011;36113;50.742;6.432;2023-04-25T09:56:09;8.05;;;3.17;;
50225;SDS011;36113;50.742;6.432;2023-04-25T09:58:36;8.80;;;3.30;;
50225;SDS011;36113;50.742;6.432;2023-04-25T10:01:04;5.45;;;2.70;;
50225;SDS011;36113;50.742;6.432;2023-04-25T10:03:31;5.68;;;2.42;;
50225;SDS011;36113;50.742;6.432;2023-04-25T10:06:01;11.88;;;3.80;;
50225;SDS011;36113;50.742;6.432;2023-04-25T10:08:34;7.60;;;2.97;;
50225;SDS011;36113;50.742;6.432;2023-04-25T10:11:02;6.72;;;2.92;;
50225;SDS011;36113;50.742;6.432;2023-04-25T10:13:33;5.88;;;2.90;;
50225;SDS011;36113;50.742;6.432;2023-04-25T10:18:26;10.25;;;2.72;;
50225;SDS011;36113;50.742;6.432;2023-04-25T10:20:53;8.30;;;3.15;;
50225;SDS011;36113;50.742;6.432;2023-04-25T10:23:20;4.75;;;2.53;;
50225;SDS011;36113;50.742;6.432;2023-04-25T10:25:46;7.10;;;2.97;;
50225;SDS011;36113;50.742;6.432;2023-04-25T10:28:13;9.35;;;3.03;;
50225;SDS011;36113;50.742;6.432;2023-04-25T10:30:42;6.68;;;2.65;;
50225;SDS011;36113;50.742;6.432;2023-04-25T10:33:28;13.27;;;4.05;;
50225;SDS011;36113;50.742;6.432;2023-04-25T10:35:58;6.00;;;2.67;;
50225;SDS011;36113;50.742;6.432;2023-04-25T10:38:24;9.20;;;3.40;;
50225;SDS011;36113;50.742;6.432;2023-04-25T10:43:34;5.05;;;2.83;;
50225;SDS011;36113;50.742;6.432;2023-04-25T10:48:50;9.85;;;2.83;;
50225;SDS011;36113;50.742;6.432;2023-04-25T10:51:27;10.13;;;2.90;;
50225;SDS011;36113;50.742;6.432;2023-04-25T10:54:00;4.90;;;2.63;;
50225;SDS011;36113;50.742;6.432;2023-04-25T10:56:27;8.95;;;3.03;;
50225;SDS011;36113;50.742;6.432;2023-04-25T11:01:40;6.47;;;2.95;;
50225;SDS011;36113;50.742;6.432;2023-04-25T11:04:20;7.82;;;2.70;;
50225;SDS011;36113;50.742;6.432;2023-04-25T11:09:30;4.80;;;2.58;;
50225;SDS011;36113;50.742;6.432;2023-04-25T11:11:57;7.13;;;2.80;;
50225;SDS011;36113;50.742;6.432;2023-04-25T11:16:53;9.50;;;3.03;;
50225;SDS011;36113;50.742;6.432;2023-04-25T11:19:20;9.13;;;2.63;;
50225;SDS011;36113;50.742;6.432;2023-04-25T11:21:46;5.43;;;2.85;;
50225;SDS011;36113;50.742;6.432;2023-04-25T11:24:11;5.53;;;2.72;;
50225;SDS011;36113;50.742;6.432;2023-04-25T11:26:36;8.52;;;2.78;;
50225;SDS011;36113;50.742;6.432;2023-04-25T11:29:02;7.13;;;2.92;;
50225;SDS011;36113;50.742;6.432;2023-04-25T11:31:28;8.75;;;3.08;;
50225;SDS011;36113;50.742;6.432;2023-04-25T11:33:56;6.93;;;2.90;;
50225;SDS011;36113;50.742;6.432;2023-04-25T11:36:22;5.63;;;2.80;;
50225;SDS011;36113;50.742;6.432;2023-04-25T11:38:50;10.30;;;3.15;;
50225;SDS011;36113;50.742;6.432;2023-04-25T11:41:16;7.93;;;3.30;;
50225;SDS011;36113;50.742;6.432;2023-04-25T11:43:42;5.45;;;2.50;;
50225;SDS011;36113;50.742;6.432;2023-04-25T11:46:08;7.72;;;3.67;;
50225;SDS011;36113;50.742;6.432;2023-04-25T11:48:40;7.60;;;3.05;;
50225;SDS011;36113;50.742;6.432;2023-04-25T11:51:06;7.40;;;2.75;;
50225;SDS011;36113;50.742;6.432;2023-04-25T11:53:32;6.82;;;2.90;;
50225;SDS011;36113;50.742;6.432;2023-04-25T11:55:57;7.00;;;2.97;;
50225;SDS011;36113;50.742;6.432;2023-04-25T11:58:23;9.65;;;3.53;;
50225;SDS011;36113;50.742;6.432;2023-04-25T12:00:50;4.15;;;2.67;;
50225;SDS011;36113;50.742;6.432;2023-04-25T12:03:15;6.30;;;3.00;;
50225;SDS011;36113;50.742;6.432;2023-04-25T12:05:43;9.65;;;3.60;;
50225;SDS011;36113;50.742;6.432;2023-04-25T12:08:11;13.07;;;3.63;;
50225;SDS011;36113;50.742;6.432;2023-04-25T12:10:37;8.13;;;3.95;;
50225;SDS011;36113;50.742;6.432;2023-04-25T12:13:19;5.22;;;2.47;;
50225;SDS011;36113;50.742;6.432;2023-04-25T12:15:54;6.53;;;2.70;;
50225;SDS011;36113;50.742;6.432;2023-04-25T12:18:22;5.72;;;2.72;;
50225;SDS011;36113;50.742;6.432;2023-04-25T12:20:50;9.20;;;3.05;;
50225;SDS011;36113;50.742;6.432;2023-04-25T12:23:17;5.97;;;2.50;;
50225;SDS011;36113;50.742;6.432;2023-04-25T12:25:51;6.20;;;2.92;;
50225;SDS011;36113;50.742;6.432;2023-04-25T12:28:20;7.18;;;3.70;;
50225;SDS011;36113;50.742;6.432;2023-04-25T12:31:07;6.13;;;2.78;;
50225;SDS011;36113;50.742;6.432;2023-04-25T12:33:34;9.25;;;2.85;;
50225;SDS011;36113;50.742;6.432;2023-04-25T12:36:01;2.75;;;2.20;;
50225;SDS011;36113;50.742;6.432;2023-04-25T12:38:35;9.80;;;2.85;;
50225;SDS011;36113;50.742;6.432;2023-04-25T12:41:05;11.18;;;3.17;;
50225;SDS011;36113;50.742;6.432;2023-04-25T12:43:34;6.25;;;2.35;;
50225;SDS011;36113;50.742;6.432;2023-04-25T12:46:00;7.40;;;2.70;;
50225;SDS011;36113;50.742;6.432;2023-04-25T12:48:25;7.57;;;2.58;;
50225;SDS011;36113;50.742;6.432;2023-04-25T12:50:51;4.88;;;2.50;;
50225;SDS011;36113;50.742;6.432;2023-04-25T12:53:17;4.77;;;2.30;;
50225;SDS011;36113;50.742;6.432;2023-04-25T12:58:12;2.50;;;2.10;;
50225;SDS011;36113;50.742;6.432;2023-04-25T13:00:38;3.63;;;2.43;;
50225;SDS011;36113;50.742;6.432;2023-04-25T13:03:04;4.15;;;2.10;;
50225;SDS011;36113;50.742;6.432;2023-04-25T13:05:29;6.40;;;2.28;;
50225;SDS011;36113;50.742;6.432;2023-04-25T13:07:55;6.93;;;2.33;;
50225;SDS011;36113;50.742;6.432;2023-04-25T13:10:20;3.28;;;2.40;;
50225;SDS011;36113;50.742;6.432;2023-04-25T13:12:46;6.40;;;3.05;;
50225;SDS011;36113;50.742;6.432;2023-04-25T13:15:11;5.38;;;2.28;;
50225;SDS011;36113;50.742;6.432;2023-04-25T13:17:37;5.93;;;2.15;;
50225;SDS011;36113;50.742;6.432;2023-04-25T13:20:04;10.13;;;2.40;;
50225;SDS011;36113;50.742;6.432;2023-04-25T13:22:33;3.40;;;2.03;;
50225;SDS011;36113;50.742;6.432;2023-04-25T13:25:01;3.53;;;2.33;;
50225;SDS011;36113;50.742;6.432;2023-04-25T13:27:26;3.92;;;2.28;;
50225;SDS011;36113;50.742;6.432;2023-04-25T13:29:54;8.82;;;2.33;;
50225;SDS011;36113;50.742;6.432;2023-04-25T13:32:20;4.65;;;2.38;;
50225;SDS011;36113;50.742;6.432;2023-04-25T13:34:45;3.85;;;2.00;;
50225;SDS011;36113;50.742;6.432;2023-04-25T13:37:10;9.00;;;2.97;;
50225;SDS011;36113;50.742;6.432;2023-04-25T13:39:36;4.10;;;2.20;;
50225;SDS011;36113;50.742;6.432;2023-04-25T13:42:01;5.57;;;2.88;;
50225;SDS011;36113;50.742;6.432;2023-04-25T13:44:26;4.80;;;2.30;;
50225;SDS011;36113;50.742;6.432;2023-04-25T13:46:52;7.57;;;2.47;;
50225;SDS011;36113;50.742;6.432;2023-04-25T13:49:17;7.60;;;2.78;;
50225;SDS011;36113;50.742;6.432;2023-04-25T13:51:42;7.57;;;2.80;;
50225;SDS011;36113;50.742;6.432;2023-04-25T13:54:08;5.60;;;2.28;;
50225;SDS011;36113;50.742;6.432;2023-04-25T13:56:33;6.32;;;2.85;;
50225;SDS011;36113;50.742;6.432;2023-04-25T13:58:59;9.13;;;2.53;;
50225;SDS011;36113;50.742;6.432;2023-04-25T14:01:24;8.85;;;2.75;;
50225;SDS011;36113;50.742;6.432;2023-04-25T14:03:49;4.97;;;2.53;;
50225;SDS011;36113;50.742;6.432;2023-04-25T14:06:15;2.35;;;2.15;;
50225;SDS011;36113;50.742;6.432;2023-04-25T14:08:47;6.05;;;2.10;;
50225;SDS011;36113;50.742;6.432;2023-04-25T14:11:12;12.95;;;3.30;;
50225;SDS011;36113;50.742;6.432;2023-04-25T14:13:38;3.40;;;2.40;;
50225;SDS011;36113;50.742;6.432;2023-04-25T14:16:03;6.47;;;2.65;;
50225;SDS011;36113;50.742;6.432;2023-04-25T14:18:29;5.65;;;2.47;;
50225;SDS011;36113;50.742;6.432;2023-04-25T14:20:54;3.97;;;1.90;;
50225;SDS011;36113;50.742;6.432;2023-04-25T14:23:19;2.20;;;1.33;;
50225;SDS011;36113;50.742;6.432;2023-04-25T14:25:45;2.28;;;1.33;;
50225;SDS011;36113;50.742;6.432;2023-04-25T14:28:10;2.05;;;1.58;;
50225;SDS011;36113;50.742;6.432;2023-04-25T14:30:35;3.50;;;2.30;;
50225;SDS011;36113;50.742;6.432;2023-04-25T14:33:01;3.38;;;2.00;;
50225;SDS011;36113;50.742;6.432;2023-04-25T14:35:26;4.80;;;1.88;;
50225;SDS011;36113;50.742;6.432;2023-04-25T14:37:52;3.75;;;2.25;;
50225;SDS011;36113;50.742;6.432;2023-04-25T14:40:18;10.63;;;7.93;;
50225;SDS011;36113;50.742;6.432;2023-04-25T14:42:43;9.75;;;5.82;;
50225;SDS011;36113;50.742;6.432;2023-04-25T14:45:08;9.88;;;4.57;;
50225;SDS011;36113;50.742;6.432;2023-04-25T14:47:34;5.95;;;2.60;;
50225;SDS011;36113;50.742;6.432;2023-04-25T14:50:01;5.18;;;2.53;;
50225;SDS011;36113;50.742;6.432;2023-04-25T14:52:27;5.85;;;1.90;;
50225;SDS011;36113;50.742;6.432;2023-04-25T14:54:52;4.85;;;3.20;;
50225;SDS011;36113;50.742;6.432;2023-04-25T14:57:18;9.07;;;3.15;;
50225;SDS011;36113;50.742;6.432;2023-04-25T14:59:43;8.82;;;3.45;;